createdAt,value
2023-01-19T05:00:45.771Z,-3.64
2023-01-19T05:01:44.532Z,-3.64
2023-01-19T05:02:51.516Z,-3.59
2023-01-19T05:03:44.407Z,-3.60
2023-01-19T05:04:44.408Z,-3.63
2023-01-19T05:05:44.386Z,-3.62
2023-01-19T05:06:44.447Z,-3.63
2023-01-19T05:07:44.367Z,-3.64
2023-01-19T05:08:45.438Z,-3.63
2023-01-19T05:09:44.337Z,-3.63
2023-01-19T05:10:44.374Z,-3.63
2023-01-19T05:11:44.322Z,-3.59
2023-01-19T05:12:44.373Z,-3.57
2023-01-19T05:13:44.318Z,-3.54
2023-01-19T05:14:44.319Z,-3.56
2023-01-19T05:15:51.308Z,-3.56
2023-01-19T05:16:44.270Z,-3.56
2023-01-19T05:17:44.239Z,-3.54
2023-01-19T05:18:44.315Z,-3.52
2023-01-19T05:19:44.244Z,-3.48
2023-01-19T05:20:44.222Z,-3.46
2023-01-19T05:21:44.189Z,-3.42
2023-01-19T05:22:44.198Z,-3.39
2023-01-19T05:23:44.158Z,-3.33
2023-01-19T05:24:44.258Z,-3.25
2023-01-19T05:25:44.145Z,-3.21
2023-01-19T05:26:44.226Z,-3.18
2023-01-19T05:27:44.111Z,-3.14
2023-01-19T05:28:44.165Z,-3.12
2023-01-19T05:29:44.101Z,-3.09
2023-01-19T05:30:44.139Z,-3.06
2023-01-19T05:31:44.070Z,-3.03
2023-01-19T05:32:44.125Z,-3.00
2023-01-19T05:33:44.056Z,-2.96
2023-01-19T05:34:44.287Z,-2.92
2023-01-19T05:35:44.024Z,-2.91
2023-01-19T05:36:44.041Z,-2.89
2023-01-19T05:37:43.992Z,-2.89
2023-01-19T05:38:44.078Z,-2.84
2023-01-19T05:39:43.970Z,-2.84
2023-01-19T05:40:44.013Z,-2.84
2023-01-19T05:41:43.966Z,-2.84
2023-01-19T05:42:43.973Z,-2.81
2023-01-19T05:43:43.920Z,-2.81
2023-01-19T05:44:43.990Z,-2.78
2023-01-19T05:45:43.890Z,-2.77
2023-01-19T05:46:43.923Z,-2.77
2023-01-19T05:47:43.867Z,-2.74
2023-01-19T05:48:43.904Z,-2.71
2023-01-19T05:49:43.849Z,-2.68
2023-01-19T05:50:44.099Z,-2.67
2023-01-19T05:51:43.846Z,-2.63
2023-01-19T05:52:43.829Z,-2.61
2023-01-19T05:53:43.797Z,-2.63
2023-01-19T05:54:43.805Z,-2.61
2023-01-19T05:55:43.769Z,-2.63
2023-01-19T05:56:43.836Z,-2.64
2023-01-19T05:57:43.751Z,-2.63
2023-01-19T05:58:43.756Z,-2.63
2023-01-19T05:59:43.726Z,-2.66
2023-01-19T06:00:43.731Z,-2.66
2023-01-19T06:01:43.912Z,-2.70
2023-01-19T06:02:43.807Z,-2.70
2023-01-19T06:03:43.676Z,-2.77
2023-01-19T06:04:43.673Z,-2.79
2023-01-19T06:05:43.631Z,-2.82
2023-01-19T06:06:43.649Z,-2.84
2023-01-19T06:07:43.699Z,-2.86
2023-01-19T06:08:43.626Z,-2.89
2023-01-19T06:09:43.589Z,-2.89
2023-01-19T06:10:43.638Z,-2.91
2023-01-19T06:11:43.559Z,-2.96
2023-01-19T06:12:43.708Z,-2.99
2023-01-19T06:13:43.556Z,-3.00
2023-01-19T06:14:43.561Z,-2.99
2023-01-19T06:15:43.518Z,-3.00
2023-01-19T06:16:43.627Z,-3.05
2023-01-19T06:17:43.572Z,-3.07
2023-01-19T06:18:43.596Z,-3.14
2023-01-19T06:19:43.480Z,-3.18
2023-01-19T06:20:43.479Z,-3.18
2023-01-19T06:21:43.453Z,-3.21
2023-01-19T06:22:43.513Z,-3.28
2023-01-19T06:23:43.444Z,-3.33
2023-01-19T06:24:43.557Z,-3.38
2023-01-19T06:25:43.401Z,-3.41
2023-01-19T06:26:43.398Z,-3.39
2023-01-19T06:27:43.366Z,-3.39
2023-01-19T06:28:43.381Z,-3.39
2023-01-19T06:29:43.354Z,-3.38
2023-01-19T06:30:43.519Z,-3.39
2023-01-19T06:31:43.579Z,-3.38
2023-01-19T06:32:43.363Z,-3.38
2023-01-19T06:33:43.296Z,-3.36
2023-01-19T06:34:43.310Z,-3.35
2023-01-19T06:35:43.268Z,-3.35
2023-01-19T06:36:43.400Z,-3.36
2023-01-19T06:37:44.781Z,-3.38
2023-01-19T06:38:43.261Z,-3.36
2023-01-19T06:39:43.222Z,-3.33
2023-01-19T06:40:43.237Z,-3.33
2023-01-19T06:41:43.210Z,-3.35
2023-01-19T06:42:43.244Z,-3.38
2023-01-19T06:43:43.240Z,-3.39
2023-01-19T06:44:43.185Z,-3.41
2023-01-19T06:45:45.126Z,-3.43
2023-01-19T06:46:43.164Z,-3.43
2023-01-19T06:47:43.204Z,-3.48
2023-01-19T06:48:43.131Z,-3.49
2023-01-19T06:49:43.106Z,-3.49
2023-01-19T06:50:43.106Z,-3.56
2023-01-19T06:51:43.075Z,-3.57
2023-01-19T06:52:43.321Z,-3.53
2023-01-19T06:53:43.053Z,-3.57
2023-01-19T06:54:43.063Z,-3.60
2023-01-19T06:55:43.027Z,-3.62
2023-01-19T06:56:43.062Z,-3.62
2023-01-19T06:57:43.002Z,-3.63
2023-01-19T06:58:43.694Z,-3.63
2023-01-19T06:59:42.998Z,-3.64
2023-01-19T07:00:43.093Z,-3.62
2023-01-19T07:01:43.072Z,-3.59
2023-01-19T07:02:43.065Z,-3.60
2023-01-19T07:03:43.160Z,-3.59
2023-01-19T07:04:43.016Z,-3.57
2023-01-19T07:05:42.925Z,-3.54
2023-01-19T07:06:42.917Z,-3.54
2023-01-19T07:07:42.874Z,-3.54
2023-01-19T07:08:42.888Z,-3.53
2023-01-19T07:09:42.856Z,-3.49
2023-01-19T07:11:26.446Z,-3.45
2023-01-19T07:11:43.850Z,-3.42
2023-01-19T07:12:42.845Z,-3.39
2023-01-19T07:13:42.867Z,-3.36
2023-01-19T07:14:42.808Z,-3.35
2023-01-19T07:15:42.835Z,-3.30
2023-01-19T07:16:42.803Z,-3.27
2023-01-19T07:17:42.754Z,-3.23
2023-01-19T07:18:42.777Z,-3.20
2023-01-19T07:19:42.752Z,-3.17
2023-01-19T07:20:42.743Z,-3.12
2023-01-19T07:21:42.780Z,-3.07
2023-01-19T07:22:42.711Z,-3.05
2023-01-19T07:23:42.692Z,-3.00
2023-01-19T07:24:42.698Z,-2.97
2023-01-19T07:25:42.663Z,-2.96
2023-01-19T07:26:42.668Z,-2.91
2023-01-19T07:27:42.691Z,-2.89
2023-01-19T07:28:42.650Z,-2.84
2023-01-19T07:29:42.626Z,-2.82
2023-01-19T07:30:42.746Z,-2.79
2023-01-19T07:31:42.669Z,-2.78
2023-01-19T07:32:42.590Z,-2.77
2023-01-19T07:33:42.622Z,-2.73
2023-01-19T07:34:42.585Z,-2.70
2023-01-19T07:35:42.537Z,-2.71
2023-01-19T07:36:42.545Z,-2.67
2023-01-19T07:37:42.544Z,-2.63
2023-01-19T07:38:42.553Z,-2.58
2023-01-19T07:39:42.507Z,-2.55
2023-01-19T07:40:42.490Z,-2.50
2023-01-19T07:41:42.484Z,-2.49
2023-01-19T07:42:42.442Z,-2.49
2023-01-19T07:43:42.460Z,-2.48
2023-01-19T07:44:42.540Z,-2.46
2023-01-19T07:45:42.517Z,-2.43
2023-01-19T07:46:42.409Z,-2.40
2023-01-19T07:47:42.406Z,-2.39
2023-01-19T07:48:42.364Z,-2.37
2023-01-19T07:49:42.388Z,-2.34
2023-01-19T07:50:42.384Z,-2.34
2023-01-19T07:51:42.343Z,-2.29
2023-01-19T07:52:42.314Z,-2.26
2023-01-19T07:53:42.969Z,-2.24
2023-01-19T07:54:42.303Z,-2.18
2023-01-19T07:55:42.305Z,-2.15
2023-01-19T07:56:42.260Z,-2.10
2023-01-19T07:57:42.270Z,-2.06
2023-01-19T07:58:42.237Z,-2.05
2023-01-19T07:59:42.705Z,-2.02
2023-01-19T08:00:42.219Z,-2.00
2023-01-19T08:01:42.384Z,-1.98
2023-01-19T08:02:42.198Z,-1.92
2023-01-19T08:03:42.195Z,-1.90
2023-01-19T08:04:42.231Z,-1.88
2023-01-19T08:05:42.451Z,-1.85
2023-01-19T08:06:42.145Z,-1.85
2023-01-19T08:07:42.150Z,-1.87
2023-01-19T08:08:42.166Z,-1.91
2023-01-19T08:09:42.157Z,-1.90
2023-01-19T08:10:42.082Z,-1.88
2023-01-19T08:11:42.160Z,-1.92
2023-01-19T08:12:42.090Z,-1.94
2023-01-19T08:13:42.063Z,-1.97
2023-01-19T08:14:42.111Z,-1.94
2023-01-19T08:15:42.144Z,-1.91
2023-01-19T08:16:42.011Z,-1.91
2023-01-19T08:17:42.019Z,-1.88
2023-01-19T08:18:42.002Z,-1.90
2023-01-19T08:19:41.999Z,-1.84
2023-01-19T08:20:42.054Z,-1.82
2023-01-19T08:21:41.992Z,-1.87
2023-01-19T08:22:41.958Z,-1.90
2023-01-19T08:23:41.987Z,-1.87
2023-01-19T08:24:41.909Z,-1.82
2023-01-19T08:25:42.006Z,-1.77
2023-01-19T08:26:41.949Z,-1.77
2023-01-19T08:27:41.896Z,-1.69
2023-01-19T08:28:41.869Z,-1.62
2023-01-19T08:29:41.867Z,-1.51
2023-01-19T08:30:41.912Z,-1.40
2023-01-19T08:31:41.939Z,-1.35
2023-01-19T08:32:42.494Z,-1.30
2023-01-19T08:33:41.823Z,-1.25
2023-01-19T08:34:41.782Z,-1.19
2023-01-19T08:35:41.788Z,-1.20
2023-01-19T08:36:41.752Z,-1.28
2023-01-19T08:37:41.780Z,-1.33
2023-01-19T08:38:41.952Z,-1.38
2023-01-19T08:39:41.744Z,-1.45
2023-01-19T08:40:41.710Z,-1.46
2023-01-19T08:41:41.722Z,-1.43
2023-01-19T08:42:41.713Z,-1.41
2023-01-19T08:43:41.688Z,-1.40
2023-01-19T08:44:57.360Z,-1.37
2023-01-19T08:45:42.670Z,-1.33
2023-01-19T08:46:41.700Z,-1.25
2023-01-19T08:47:41.701Z,-1.22
2023-01-19T08:48:41.608Z,-1.16
2023-01-19T08:49:41.625Z,-1.15
2023-01-19T08:50:41.878Z,-1.20
2023-01-19T08:51:41.587Z,-1.25
2023-01-19T08:52:41.565Z,-1.28
2023-01-19T08:53:41.566Z,-1.30
2023-01-19T08:54:41.545Z,-1.35
2023-01-19T08:55:41.556Z,-1.41
2023-01-19T08:56:41.565Z,-1.46
2023-01-19T08:57:41.517Z,-1.46
2023-01-19T08:58:41.482Z,-1.40
2023-01-19T08:59:41.504Z,-1.35
2023-01-19T09:00:41.457Z,-1.27
2023-01-19T09:01:41.680Z,-1.27
2023-01-19T09:02:41.523Z,-1.20
2023-01-19T09:03:41.465Z,-1.12
2023-01-19T09:04:41.973Z,-1.02
2023-01-19T09:05:41.412Z,-0.95
2023-01-19T09:06:41.455Z,-0.94
2023-01-19T09:07:41.382Z,-0.80
2023-01-19T09:08:41.351Z,-0.75
2023-01-19T09:09:41.361Z,-0.83
2023-01-19T09:10:41.450Z,-0.89
2023-01-19T09:11:41.368Z,-0.83
2023-01-19T09:12:41.299Z,-0.80
2023-01-19T09:13:41.375Z,-0.78
2023-01-19T09:14:41.302Z,-0.78
2023-01-19T09:15:41.445Z,-0.79
2023-01-19T09:16:41.283Z,-0.76
2023-01-19T09:17:41.263Z,-0.76
2023-01-19T09:18:41.235Z,-0.78
2023-01-19T09:19:41.245Z,-0.67
2023-01-19T09:20:41.244Z,-0.60
2023-01-19T09:21:41.214Z,-0.54
2023-01-19T09:22:41.179Z,-0.46
2023-01-19T09:23:41.198Z,-0.42
2023-01-19T09:24:41.152Z,-0.42
2023-01-19T09:25:41.165Z,-0.44
2023-01-19T09:26:41.343Z,-0.43
2023-01-19T09:27:41.143Z,-0.34
2023-01-19T09:28:41.119Z,-0.28
2023-01-19T09:29:41.104Z,-0.21
2023-01-19T09:30:41.097Z,-0.11
2023-01-19T09:31:41.162Z,-0.08
2023-01-19T09:32:41.152Z,-0.10
2023-01-19T09:33:41.052Z,-0.05
2023-01-19T09:34:41.027Z,-0.01
2023-01-19T09:35:41.041Z,0.03
2023-01-19T09:36:41.005Z,0.07
2023-01-19T09:37:41.020Z,0.11
2023-01-19T09:38:41.072Z,0.21
2023-01-19T09:39:41.017Z,0.23
2023-01-19T09:40:42.094Z,0.24
2023-01-19T09:41:40.981Z,0.28
2023-01-19T09:42:40.920Z,0.33
2023-01-19T09:43:40.972Z,0.39
2023-01-19T09:44:41.748Z,0.39
2023-01-19T09:45:40.982Z,0.39
2023-01-19T09:46:40.941Z,0.36
2023-01-19T09:47:40.892Z,0.33
2023-01-19T09:48:40.854Z,0.36
2023-01-19T09:49:40.857Z,0.46
2023-01-19T09:50:42.495Z,0.55
2023-01-19T09:51:40.837Z,0.60
2023-01-19T09:52:40.814Z,0.66
2023-01-19T09:53:40.807Z,0.72
2023-01-19T09:54:40.765Z,0.84
2023-01-19T09:55:40.791Z,0.91
2023-01-19T09:56:40.917Z,0.96
2023-01-19T09:57:40.761Z,0.97
2023-01-19T09:58:40.724Z,1.00
2023-01-19T09:59:40.744Z,0.96
2023-01-19T10:00:40.741Z,0.94
2023-01-19T10:01:40.732Z,0.91
2023-01-19T10:02:41.435Z,1.02
2023-01-19T10:03:40.690Z,1.11
2023-01-19T10:04:40.640Z,1.18
2023-01-19T10:05:40.654Z,1.23
2023-01-19T10:06:40.611Z,1.27
2023-01-19T10:07:40.640Z,1.24
2023-01-19T10:08:40.690Z,1.32
2023-01-19T10:09:40.599Z,1.40
2023-01-19T10:10:40.580Z,1.47
2023-01-19T10:11:51.821Z,1.54
2023-01-19T10:12:41.556Z,1.63
2023-01-19T10:13:40.558Z,1.72
2023-01-19T10:14:40.618Z,1.79
2023-01-19T10:15:40.542Z,1.79
2023-01-19T10:16:41.060Z,1.84
2023-01-19T10:17:40.498Z,1.93
2023-01-19T10:18:40.473Z,1.93
2023-01-19T10:19:40.487Z,1.93
2023-01-19T10:20:40.450Z,2.00
2023-01-19T10:21:40.457Z,2.05
2023-01-19T10:22:41.414Z,2.07
2023-01-19T10:23:40.425Z,2.03
2023-01-19T10:24:40.401Z,2.03
2023-01-19T10:25:40.436Z,2.05
2023-01-19T10:26:40.382Z,2.14
2023-01-19T10:27:40.421Z,2.07
2023-01-19T10:28:41.180Z,2.14
2023-01-19T10:29:40.354Z,2.23
2023-01-19T10:30:40.373Z,2.25
2023-01-19T10:31:40.491Z,2.23
2023-01-19T10:32:40.330Z,2.27
2023-01-19T10:33:40.303Z,2.39
2023-01-19T10:34:40.532Z,2.38
2023-01-19T10:35:40.312Z,2.38
2023-01-19T10:36:40.245Z,2.38
2023-01-19T10:37:40.231Z,2.45
2023-01-19T10:38:40.218Z,2.52
2023-01-19T10:39:40.221Z,2.57
2023-01-19T10:40:40.365Z,2.59
2023-01-19T10:41:40.206Z,2.63
2023-01-19T10:42:40.244Z,2.60
2023-01-19T10:43:40.178Z,2.57
2023-01-19T10:44:40.165Z,2.59
2023-01-19T10:45:40.189Z,2.63
2023-01-19T10:46:40.255Z,2.69
2023-01-19T10:47:40.149Z,2.63
2023-01-19T10:48:40.092Z,2.57
2023-01-19T10:49:40.127Z,2.61
2023-01-19T10:50:40.115Z,2.56
2023-01-19T10:51:40.104Z,2.56
2023-01-19T10:52:40.263Z,2.53
2023-01-19T10:53:40.046Z,2.53
2023-01-19T10:54:40.018Z,2.45
2023-01-19T10:55:40.100Z,2.46
2023-01-19T10:56:39.973Z,2.56
2023-01-19T10:57:40.015Z,2.59
2023-01-19T10:58:40.201Z,2.61
2023-01-19T10:59:39.991Z,2.53
2023-01-19T11:00:40.039Z,2.52
2023-01-19T11:01:39.994Z,2.53
2023-01-19T11:02:39.939Z,2.59
2023-01-19T11:03:40.015Z,2.56
2023-01-19T11:04:39.983Z,2.52
2023-01-19T11:05:39.890Z,2.46
2023-01-19T11:06:40.061Z,2.42
2023-01-19T11:07:39.855Z,2.41
2023-01-19T11:08:39.822Z,2.34
2023-01-19T11:09:39.826Z,2.30
2023-01-19T11:10:39.803Z,2.35
2023-01-19T11:11:39.811Z,2.41
2023-01-19T11:12:39.814Z,2.45
2023-01-19T11:13:39.779Z,2.38
2023-01-19T11:14:39.745Z,2.39
2023-01-19T11:15:46.807Z,2.38
2023-01-19T11:16:39.792Z,2.27
2023-01-19T11:17:39.719Z,2.24
2023-01-19T11:18:39.756Z,2.28
2023-01-19T11:19:39.772Z,2.24
2023-01-19T11:20:39.715Z,2.20
2023-01-19T11:21:39.692Z,2.16
2023-01-19T11:22:39.688Z,2.10
2023-01-19T11:23:39.676Z,2.09
2023-01-19T11:24:39.633Z,2.06
2023-01-19T11:25:39.628Z,2.09
2023-01-19T11:26:39.594Z,2.03
2023-01-19T11:27:40.691Z,2.03
2023-01-19T11:28:39.577Z,2.02
2023-01-19T11:29:39.588Z,2.03
2023-01-19T11:30:39.631Z,2.02
2023-01-19T11:31:39.599Z,2.07
2023-01-19T11:32:39.529Z,2.14
2023-01-19T11:33:39.737Z,2.14
2023-01-19T11:34:39.499Z,2.18
2023-01-19T11:35:39.510Z,2.27
2023-01-19T11:36:39.476Z,2.28
2023-01-19T11:37:39.495Z,2.21
2023-01-19T11:38:39.467Z,2.18
2023-01-19T11:39:39.623Z,2.23
2023-01-19T11:40:39.420Z,2.18
2023-01-19T11:41:39.470Z,2.16
2023-01-19T11:42:39.432Z,2.10
2023-01-19T11:43:48.626Z,2.05
2023-01-19T11:44:40.380Z,2.02
2023-01-19T11:45:39.408Z,1.99
2023-01-19T11:46:39.364Z,1.95
2023-01-19T11:47:40.302Z,1.91
2023-01-19T11:48:39.323Z,1.98
2023-01-19T11:49:39.332Z,1.95
2023-01-19T11:50:39.318Z,2.03
2023-01-19T11:51:39.284Z,2.05
2023-01-19T11:52:40.455Z,2.12
2023-01-19T11:53:39.562Z,2.17
2023-01-19T11:54:39.259Z,2.17
2023-01-19T11:55:39.239Z,2.21
2023-01-19T11:56:39.241Z,2.34
2023-01-19T11:57:39.198Z,2.34
2023-01-19T11:58:39.247Z,2.35
2023-01-19T11:59:39.556Z,2.39
2023-01-19T12:00:39.189Z,2.45
2023-01-19T12:01:39.148Z,2.45
2023-01-19T12:02:39.165Z,2.36
2023-01-19T12:03:39.218Z,2.35
2023-01-19T12:04:39.148Z,2.30
2023-01-19T12:05:39.295Z,2.30
2023-01-19T12:06:39.108Z,2.38
2023-01-19T12:07:39.847Z,2.43
2023-01-19T12:08:39.084Z,2.43
2023-01-19T12:09:39.045Z,2.54
2023-01-19T12:10:39.080Z,2.57
2023-01-19T12:11:39.042Z,2.53
2023-01-19T12:12:39.036Z,2.54
2023-01-19T12:13:39.058Z,2.46
2023-01-19T12:14:39.010Z,2.46
2023-01-19T12:15:39.038Z,2.53
2023-01-19T12:16:39.027Z,2.56
2023-01-19T12:17:38.971Z,2.59
2023-01-19T12:18:38.975Z,2.54
2023-01-19T12:19:38.963Z,2.49
2023-01-19T12:20:38.948Z,2.49
2023-01-19T12:21:38.895Z,2.52
2023-01-19T12:22:38.934Z,2.53
2023-01-19T12:23:38.881Z,2.53
2023-01-19T12:24:38.922Z,2.49
2023-01-19T12:25:38.991Z,2.53
2023-01-19T12:26:38.891Z,2.59
2023-01-19T12:27:38.845Z,2.59
2023-01-19T12:28:38.849Z,2.66
2023-01-19T12:29:38.780Z,2.66
2023-01-19T12:30:38.894Z,2.64
2023-01-19T12:31:47.565Z,2.60
2023-01-19T12:32:38.764Z,2.54
2023-01-19T12:33:45.765Z,2.48
2023-01-19T12:34:45.768Z,2.48
2023-01-19T12:35:45.723Z,2.45
2023-01-19T12:36:38.710Z,2.46
2023-01-19T12:37:38.730Z,2.46
2023-01-19T12:38:38.698Z,2.52
2023-01-19T12:39:38.668Z,2.52
2023-01-19T12:40:38.682Z,2.43
2023-01-19T12:41:38.670Z,2.36
2023-01-19T12:42:38.645Z,2.36
2023-01-19T12:43:39.294Z,2.31
2023-01-19T12:44:38.656Z,2.31
2023-01-19T12:45:38.602Z,2.35
2023-01-19T12:46:38.599Z,2.35
2023-01-19T12:47:38.565Z,2.31
2023-01-19T12:48:38.567Z,2.30
2023-01-19T12:49:38.760Z,2.31
2023-01-19T12:50:38.558Z,2.31
2023-01-19T12:51:38.502Z,2.35
2023-01-19T12:52:38.522Z,2.30
2023-01-19T12:53:38.496Z,2.27
2023-01-19T12:54:38.500Z,2.27
2023-01-19T12:55:38.483Z,2.25
2023-01-19T12:56:38.462Z,2.21
2023-01-19T12:57:38.438Z,2.09
2023-01-19T12:58:38.445Z,2.02
2023-01-19T12:59:38.403Z,1.91
2023-01-19T13:00:39.286Z,1.84
2023-01-19T13:01:38.435Z,1.83
2023-01-19T13:02:38.431Z,1.84
2023-01-19T13:03:38.353Z,1.83
2023-01-19T13:04:38.367Z,1.79
2023-01-19T13:05:38.356Z,1.80
2023-01-19T13:06:38.375Z,1.77
2023-01-19T13:07:38.342Z,1.76
2023-01-19T13:08:38.326Z,1.76
2023-01-19T13:09:38.286Z,1.73
2023-01-19T13:10:38.481Z,1.69
2023-01-19T13:11:38.253Z,1.69
2023-01-19T13:12:38.368Z,1.72
2023-01-19T13:13:38.272Z,1.69
2023-01-19T13:14:38.268Z,1.70
2023-01-19T13:15:38.268Z,1.65
2023-01-19T13:16:38.233Z,1.65
2023-01-19T13:17:38.183Z,1.70
2023-01-19T13:18:38.191Z,1.69
2023-01-19T13:19:38.888Z,1.68
2023-01-19T13:20:38.161Z,1.63
2023-01-19T13:21:38.150Z,1.62
2023-01-19T13:22:38.155Z,1.63
2023-01-19T13:23:38.090Z,1.66
2023-01-19T13:24:38.159Z,1.60
2023-01-19T13:25:38.291Z,1.59
2023-01-19T13:26:38.077Z,1.54
2023-01-19T13:27:38.040Z,1.52
2023-01-19T13:28:38.064Z,1.55
2023-01-19T13:29:38.054Z,1.58
2023-01-19T13:30:38.203Z,1.59
2023-01-19T13:31:38.092Z,1.62
2023-01-19T13:32:38.009Z,1.63
2023-01-19T13:33:40.622Z,1.63
2023-01-19T13:34:38.050Z,1.62
2023-01-19T13:35:37.968Z,1.65
2023-01-19T13:36:37.966Z,1.68
2023-01-19T13:37:38.163Z,1.68
2023-01-19T13:38:37.923Z,1.70
2023-01-19T13:39:37.927Z,1.73
2023-01-19T13:40:37.934Z,1.77
2023-01-19T13:41:37.882Z,1.81
2023-01-19T13:42:37.891Z,1.84
2023-01-19T13:43:37.936Z,1.86
2023-01-19T13:44:37.968Z,1.86
2023-01-19T13:45:37.873Z,1.88
2023-01-19T13:46:37.844Z,1.91
2023-01-19T13:47:37.801Z,1.95
2023-01-19T13:48:37.817Z,1.98
2023-01-19T13:49:37.802Z,1.95
2023-01-19T13:50:37.761Z,1.93
2023-01-19T13:51:37.739Z,1.95
2023-01-19T13:52:37.753Z,1.99
2023-01-19T13:53:37.716Z,1.99
2023-01-19T13:54:37.972Z,2.00
2023-01-19T13:55:37.680Z,1.95
2023-01-19T13:56:37.718Z,1.93
2023-01-19T13:57:37.658Z,1.93
2023-01-19T13:58:37.666Z,1.95
2023-01-19T13:59:37.626Z,1.95
2023-01-19T14:00:38.283Z,1.98
2023-01-19T14:01:37.747Z,1.99
2023-01-19T14:02:37.929Z,1.99
2023-01-19T14:03:37.593Z,1.98
2023-01-19T14:04:37.649Z,1.93
2023-01-19T14:05:37.639Z,1.93
2023-01-19T14:06:37.906Z,1.90
2023-01-19T14:07:37.591Z,1.88
2023-01-19T14:08:37.544Z,1.84
2023-01-19T14:09:37.526Z,1.77
2023-01-19T14:10:37.576Z,1.76
2023-01-19T14:11:37.472Z,1.77
2023-01-19T14:12:43.603Z,1.73
2023-01-19T14:13:38.474Z,1.72
2023-01-19T14:14:37.461Z,1.70
2023-01-19T14:15:37.472Z,1.72
2023-01-19T14:16:37.447Z,1.73
2023-01-19T14:17:37.410Z,1.73
2023-01-19T14:18:37.396Z,1.76
2023-01-19T14:19:37.382Z,1.77
2023-01-19T14:20:37.428Z,1.80
2023-01-19T14:21:37.355Z,1.79
2023-01-19T14:22:37.426Z,1.79
2023-01-19T14:23:44.338Z,1.77
2023-01-19T14:24:44.358Z,1.79
2023-01-19T14:25:44.392Z,1.80
2023-01-19T14:26:37.312Z,1.83
2023-01-19T14:27:37.249Z,1.84
2023-01-19T14:28:37.260Z,1.86
2023-01-19T14:29:37.246Z,1.84
2023-01-19T14:30:37.253Z,1.80
2023-01-19T14:31:37.485Z,1.79
2023-01-19T14:32:37.239Z,1.72
2023-01-19T14:33:37.267Z,1.66
2023-01-19T14:34:37.217Z,1.66
2023-01-19T14:35:37.196Z,1.66
2023-01-19T14:36:37.168Z,1.66
2023-01-19T14:37:37.311Z,1.65
2023-01-19T14:38:37.158Z,1.63
2023-01-19T14:39:37.155Z,1.62
2023-01-19T14:40:37.155Z,1.59
2023-01-19T14:41:37.108Z,1.58
2023-01-19T14:42:37.121Z,1.59
2023-01-19T14:43:37.252Z,1.55
2023-01-19T14:44:37.056Z,1.54
2023-01-19T14:45:37.046Z,1.54
2023-01-19T14:46:37.078Z,1.55
2023-01-19T14:47:37.082Z,1.55
2023-01-19T14:48:37.028Z,1.58
2023-01-19T14:49:37.928Z,1.58
2023-01-19T14:50:36.991Z,1.58
2023-01-19T14:51:36.951Z,1.58
2023-01-19T14:52:37.005Z,1.59
2023-01-19T14:53:37.009Z,1.54
2023-01-19T14:54:36.948Z,1.52
2023-01-19T14:55:37.594Z,1.52
2023-01-19T14:56:36.910Z,1.52
2023-01-19T14:57:36.901Z,1.51
2023-01-19T14:58:36.879Z,1.51
2023-01-19T14:59:36.853Z,1.50
2023-01-19T15:00:36.900Z,1.51
2023-01-19T15:01:37.070Z,1.51
2023-01-19T15:02:36.854Z,1.50
2023-01-19T15:03:45.433Z,1.51
2023-01-19T15:04:37.816Z,1.54
2023-01-19T15:05:36.786Z,1.54
2023-01-19T15:06:36.789Z,1.54
2023-01-19T15:07:36.828Z,1.54
2023-01-19T15:08:36.770Z,1.54
2023-01-19T15:09:36.719Z,1.54
2023-01-19T15:10:36.736Z,1.55
2023-01-19T15:11:36.700Z,1.52
2023-01-19T15:12:36.699Z,1.58
2023-01-19T15:13:36.791Z,1.58
2023-01-19T15:14:36.693Z,1.55
2023-01-19T15:15:36.680Z,1.54
2023-01-19T15:16:36.687Z,1.55
2023-01-19T15:17:36.649Z,1.52
2023-01-19T15:18:36.634Z,1.50
2023-01-19T15:19:36.601Z,1.51
2023-01-19T15:20:36.673Z,1.51
2023-01-19T15:21:36.567Z,1.51
2023-01-19T15:22:36.590Z,1.50
2023-01-19T15:23:36.545Z,1.50
2023-01-19T15:24:36.559Z,1.48
2023-01-19T15:25:36.541Z,1.47
2023-01-19T15:26:36.763Z,1.48
2023-01-19T15:27:36.505Z,1.45
2023-01-19T15:28:36.565Z,1.44
2023-01-19T15:29:36.473Z,1.42
2023-01-19T15:30:36.523Z,1.41
2023-01-19T15:31:36.514Z,1.36
2023-01-19T15:32:36.620Z,1.34
2023-01-19T15:33:36.431Z,1.32
2023-01-19T15:34:36.432Z,1.32
2023-01-19T15:35:36.409Z,1.30
2023-01-19T15:36:36.420Z,1.27
2023-01-19T15:37:36.400Z,1.24
2023-01-19T15:38:36.474Z,1.23
2023-01-19T15:39:36.339Z,1.18
2023-01-19T15:40:36.365Z,1.15
2023-01-19T15:41:36.342Z,1.12
2023-01-19T15:42:36.344Z,1.09
2023-01-19T15:43:36.326Z,1.08
2023-01-19T15:44:36.444Z,1.05
2023-01-19T15:45:36.293Z,1.05
2023-01-19T15:46:36.317Z,1.00
2023-01-19T15:47:36.245Z,1.00
2023-01-19T15:48:36.244Z,0.96
2023-01-19T15:49:36.214Z,0.94
2023-01-19T15:50:36.551Z,0.91
2023-01-19T15:51:36.195Z,0.88
2023-01-19T15:52:36.302Z,0.88
2023-01-19T15:53:36.174Z,0.88
2023-01-19T15:54:36.247Z,0.86
2023-01-19T15:55:36.164Z,0.86
2023-01-19T15:56:36.199Z,0.84
2023-01-19T15:57:36.151Z,0.83
2023-01-19T15:58:36.103Z,0.83
2023-01-19T15:59:36.110Z,0.80
2023-01-19T16:00:36.079Z,0.83
2023-01-19T16:01:36.372Z,0.80
2023-01-19T16:02:43.599Z,0.80
2023-01-19T16:03:43.092Z,0.84
2023-01-19T16:04:43.054Z,0.84
2023-01-19T16:05:44.098Z,0.83
2023-01-19T16:06:35.985Z,0.84
2023-01-19T16:07:36.166Z,0.80
2023-01-19T16:08:35.997Z,0.80
2023-01-19T16:09:35.982Z,0.83
2023-01-19T16:10:35.951Z,0.80
2023-01-19T16:11:35.970Z,0.83
2023-01-19T16:12:35.939Z,0.86
2023-01-19T16:13:36.209Z,0.87
2023-01-19T16:14:35.914Z,0.87
2023-01-19T16:15:35.939Z,0.88
2023-01-19T16:16:35.942Z,0.88
2023-01-19T16:17:35.889Z,0.87
2023-01-19T16:18:35.866Z,0.87
2023-01-19T16:19:35.890Z,0.86
2023-01-19T16:20:35.836Z,0.84
2023-01-19T16:21:35.842Z,0.84
2023-01-19T16:22:35.789Z,0.87
2023-01-19T16:23:35.829Z,0.86
2023-01-19T16:24:35.781Z,0.84
2023-01-19T16:25:35.901Z,0.84
2023-01-19T16:26:35.747Z,0.86
2023-01-19T16:27:35.916Z,0.87
2023-01-19T16:28:35.720Z,0.86
2023-01-19T16:29:35.742Z,0.86
2023-01-19T16:30:35.760Z,0.88
2023-01-19T16:31:35.725Z,0.86
2023-01-19T16:32:35.674Z,0.87
2023-01-19T16:33:35.774Z,0.88
2023-01-19T16:34:35.657Z,0.91
2023-01-19T16:35:35.661Z,0.88
2023-01-19T16:36:35.632Z,0.90
2023-01-19T16:37:35.666Z,0.90
2023-01-19T16:38:35.593Z,0.88
2023-01-19T16:39:35.763Z,0.88
2023-01-19T16:40:35.607Z,0.84
2023-01-19T16:41:35.621Z,0.83
2023-01-19T16:42:35.673Z,0.83
2023-01-19T16:43:35.635Z,0.80
2023-01-19T16:44:35.540Z,0.80
2023-01-19T16:45:35.635Z,0.79
2023-01-19T16:46:35.517Z,0.75
2023-01-19T16:47:35.572Z,0.75
2023-01-19T16:48:35.476Z,0.72
2023-01-19T16:49:35.540Z,0.73
2023-01-19T16:50:35.489Z,0.70
2023-01-19T16:51:35.474Z,0.72
2023-01-19T16:52:35.458Z,0.69
2023-01-19T16:53:35.709Z,0.72
2023-01-19T16:54:35.392Z,0.70
2023-01-19T16:55:35.407Z,0.69
2023-01-19T16:56:35.376Z,0.66
2023-01-19T16:57:35.469Z,0.61
2023-01-19T16:58:35.350Z,0.60
2023-01-19T16:59:35.406Z,0.58
2023-01-19T17:00:35.329Z,0.58
2023-01-19T17:01:35.494Z,0.57
2023-01-19T17:02:35.360Z,0.53
2023-01-19T17:03:35.327Z,0.50
2023-01-19T17:04:35.301Z,0.50
2023-01-19T17:05:35.273Z,0.49
2023-01-19T17:06:35.254Z,0.49
2023-01-19T17:07:35.265Z,0.47
2023-01-19T17:08:35.541Z,0.44
2023-01-19T17:09:35.279Z,0.42
2023-01-19T17:10:35.191Z,0.38
2023-01-19T17:11:35.216Z,0.32
2023-01-19T17:12:35.184Z,0.31
2023-01-19T17:13:35.172Z,0.28
2023-01-19T17:14:35.261Z,0.24
2023-01-19T17:16:28.775Z,0.20
2023-01-19T17:17:28.753Z,0.14
2023-01-19T17:18:30.529Z,0.11
2023-01-19T17:19:28.725Z,0.08
2023-01-19T17:20:28.733Z,0.08
2023-01-19T17:21:28.703Z,0.07
2023-01-19T17:22:28.670Z,0.04
2023-01-19T17:23:28.765Z,0.07
2023-01-19T17:24:28.641Z,0.08
2023-01-19T17:25:28.656Z,0.07
2023-01-19T17:26:28.608Z,0.10
2023-01-19T17:27:28.631Z,0.13
2023-01-19T17:28:28.661Z,0.14
2023-01-19T17:29:28.601Z,0.15
2023-01-19T17:30:28.712Z,0.13
2023-01-19T17:31:28.677Z,0.13
2023-01-19T17:32:28.539Z,0.10
2023-01-19T17:33:28.548Z,0.08
2023-01-19T17:34:29.358Z,0.07
2023-01-19T17:35:28.527Z,0.07
2023-01-19T17:36:28.495Z,0.10
2023-01-19T17:37:28.505Z,0.14
2023-01-19T17:38:28.462Z,0.15
2023-01-19T17:39:28.485Z,0.18
2023-01-19T17:40:29.535Z,0.21
2023-01-19T17:41:28.447Z,0.23
2023-01-19T17:42:28.415Z,0.20
2023-01-19T17:43:28.424Z,0.15
2023-01-19T17:44:28.457Z,0.13
2023-01-19T17:45:28.394Z,0.11
2023-01-19T17:46:28.466Z,0.08
2023-01-19T17:47:28.378Z,0.04
2023-01-19T17:48:28.343Z,0.03
2023-01-19T17:49:28.360Z,0.03
2023-01-19T17:50:28.353Z,0.02
2023-01-19T17:51:28.319Z,-0.01
2023-01-19T17:52:32.117Z,-0.01
2023-01-19T17:53:28.348Z,-0.05
2023-01-19T17:54:28.272Z,-0.10
2023-01-19T17:55:28.271Z,-0.11
2023-01-19T17:56:28.244Z,-0.15
2023-01-19T17:57:28.259Z,-0.15
2023-01-19T17:58:28.920Z,-0.16
2023-01-19T17:59:28.238Z,-0.21
2023-01-19T18:00:28.204Z,-0.23
2023-01-19T18:01:28.325Z,-0.23
2023-01-19T18:02:28.225Z,-0.25
2023-01-19T18:03:28.188Z,-0.26
2023-01-19T18:04:28.247Z,-0.26
2023-01-19T18:05:28.168Z,-0.28
2023-01-19T18:06:28.118Z,-0.28
2023-01-19T18:07:28.134Z,-0.28
2023-01-19T18:08:28.093Z,-0.28
2023-01-19T18:09:28.296Z,-0.31